createdAt,value
2023-04-29T00:02:15.982Z,79.30
2023-04-29T00:04:47.071Z,80.00
2023-04-29T00:07:18.028Z,79.50
2023-04-29T00:09:51.407Z,75.50
2023-04-29T00:12:22.874Z,77.80
2023-04-29T00:14:53.957Z,74.60
2023-04-29T00:17:24.786Z,75.40
2023-04-29T00:19:55.835Z,76.00
2023-04-29T00:22:27.465Z,76.90
2023-04-29T00:25:00.577Z,76.30
2023-04-29T00:27:31.467Z,77.30
2023-04-29T00:30:02.397Z,79.40
2023-04-29T00:32:33.703Z,76.10
2023-04-29T00:35:04.863Z,76.00
2023-04-29T00:37:36.193Z,75.60
2023-04-29T00:40:09.918Z,78.10
2023-04-29T00:42:40.860Z,78.70
2023-04-29T00:45:13.805Z,78.70
2023-04-29T00:47:45.112Z,80.30
2023-04-29T00:50:16.318Z,77.90
2023-04-29T00:52:47.314Z,77.80
2023-04-29T00:55:20.726Z,77.70
2023-04-29T00:57:53.777Z,78.50
2023-04-29T01:00:25.829Z,77.30
2023-04-29T01:02:58.062Z,78.50
2023-04-29T01:05:29.093Z,77.20
2023-04-29T01:08:18.320Z,75.10
2023-04-29T01:10:57.390Z,74.90
2023-04-29T01:13:34.153Z,76.70
2023-04-29T01:16:07.874Z,76.10
2023-04-29T01:18:44.746Z,74.30
2023-04-29T01:21:15.548Z,73.40
2023-04-29T01:23:48.474Z,74.30
2023-04-29T01:26:19.980Z,74.70
2023-04-29T01:28:57.411Z,73.20
2023-04-29T01:31:33.708Z,73.00
2023-04-29T01:34:11.479Z,72.90
2023-04-29T01:36:50.387Z,74.40
2023-04-29T01:39:36.112Z,75.20
2023-04-29T01:42:14.413Z,72.80
2023-04-29T01:44:46.630Z,73.30
2023-04-29T01:47:18.411Z,72.80
2023-04-29T01:49:49.156Z,73.60
2023-04-29T01:52:20.475Z,76.10
2023-04-29T01:54:53.186Z,76.10
2023-04-29T01:57:23.932Z,77.20
2023-04-29T01:59:54.902Z,77.70
2023-04-29T02:02:26.357Z,77.10
2023-04-29T02:04:57.586Z,78.70
2023-04-29T02:07:28.845Z,79.20
2023-04-29T02:10:01.628Z,79.60
2023-04-29T02:12:33.387Z,82.20
2023-04-29T02:15:04.752Z,83.50
2023-04-29T02:17:37.158Z,86.40
2023-04-29T02:20:09.121Z,86.40
2023-04-29T02:22:40.782Z,87.60
2023-04-29T02:25:14.739Z,87.20
2023-04-29T02:27:45.582Z,86.50
2023-04-29T02:30:16.852Z,88.50
2023-04-29T02:32:48.001Z,89.80
2023-04-29T02:35:19.594Z,91.10
2023-04-29T02:37:51.137Z,91.10
2023-04-29T02:40:26.504Z,91.50
2023-04-29T02:42:57.303Z,92.10
2023-04-29T02:45:28.945Z,91.60
2023-04-29T02:47:59.879Z,92.70
2023-04-29T02:50:31.149Z,93.60
2023-04-29T02:53:02.478Z,93.80
2023-04-29T02:55:35.676Z,93.90
2023-04-29T02:58:06.639Z,94.30
2023-04-29T03:00:37.966Z,95.30
2023-04-29T03:03:09.469Z,95.30
2023-04-29T03:05:40.758Z,95.10
2023-04-29T03:08:12.309Z,96.30
2023-04-29T03:10:45.693Z,96.20
2023-04-29T03:13:16.641Z,96.00
2023-04-29T03:15:47.839Z,96.60
2023-04-29T03:18:18.648Z,96.50
2023-04-29T03:20:49.968Z,97.00
2023-04-29T03:23:21.122Z,97.70
2023-04-29T03:25:56.865Z,98.80
2023-04-29T03:28:28.113Z,99.70
2023-04-29T03:31:00.221Z,99.90
2023-04-29T03:33:31.844Z,99.90
2023-04-29T03:36:04.097Z,99.90
2023-04-29T03:38:35.162Z,99.90
2023-04-29T03:41:08.427Z,99.90
2023-04-29T03:43:39.593Z,99.90
2023-04-29T03:46:11.239Z,99.90
2023-04-29T03:48:42.025Z,99.90
2023-04-29T03:51:14.572Z,99.90
2023-04-29T03:53:45.577Z,99.90
2023-04-29T03:56:18.365Z,99.90
2023-04-29T03:58:49.876Z,99.90
2023-04-29T04:01:21.162Z,99.90
2023-04-29T04:03:53.436Z,99.90
2023-04-29T04:06:24.470Z,99.90
2023-04-29T04:08:56.040Z,99.90
2023-04-29T04:11:28.884Z,99.90
2023-04-29T04:14:00.413Z,99.90
2023-04-29T04:16:31.322Z,99.90
2023-04-29T04:19:02.798Z,99.90
2023-04-29T04:21:34.179Z,99.90
2023-04-29T04:24:05.708Z,99.90
2023-04-29T04:26:38.890Z,99.90
2023-04-29T04:29:10.494Z,99.90
2023-04-29T04:31:43.809Z,99.90
2023-04-29T04:34:16.962Z,99.90
2023-04-29T04:36:48.181Z,99.90
2023-04-29T04:39:20.691Z,99.90
2023-04-29T04:41:53.409Z,99.90
2023-04-29T04:44:24.937Z,99.90
2023-04-29T04:46:56.619Z,99.90
2023-04-29T04:49:28.180Z,99.90
2023-04-29T04:51:59.275Z,99.90
2023-04-29T04:54:30.373Z,99.90
2023-04-29T04:57:06.407Z,99.90
2023-04-29T04:59:37.944Z,99.90
2023-04-29T05:02:09.671Z,99.90
2023-04-29T05:04:40.693Z,99.90
2023-04-29T05:07:11.544Z,99.90
2023-04-29T05:09:43.103Z,99.90
2023-04-29T05:12:16.056Z,99.90
2023-04-29T05:14:48.338Z,99.90
2023-04-29T05:17:19.753Z,99.90
2023-04-29T05:19:51.212Z,99.90
2023-04-29T05:22:22.884Z,99.90
2023-04-29T05:24:55.331Z,99.90
2023-04-29T05:27:27.941Z,99.90
2023-04-29T05:29:59.692Z,99.90
2023-04-29T05:32:30.690Z,99.90
2023-04-29T05:35:03.375Z,99.90
2023-04-29T05:37:35.722Z,99.90
2023-04-29T05:40:08.006Z,99.90
2023-04-29T05:42:41.747Z,99.90
2023-04-29T05:45:14.832Z,99.90
2023-04-29T05:47:46.792Z,99.90
2023-04-29T05:50:18.215Z,99.90
2023-04-29T05:52:49.379Z,99.90
2023-04-29T05:55:20.412Z,99.90
2023-04-29T05:57:53.793Z,99.90
2023-04-29T06:00:25.556Z,99.90
2023-04-29T06:02:59.010Z,99.90
2023-04-29T06:05:30.809Z,99.90
2023-04-29T06:08:02.784Z,99.90
2023-04-29T06:10:34.950Z,99.90
2023-04-29T06:13:07.480Z,99.90
2023-04-29T06:15:38.537Z,99.90
2023-04-29T06:18:09.828Z,99.90
2023-04-29T06:20:41.741Z,99.90
2023-04-29T06:23:13.442Z,99.90
2023-04-29T06:25:44.550Z,99.90
2023-04-29T06:28:17.816Z,99.90
2023-04-29T06:30:49.226Z,99.90
2023-04-29T06:33:20.272Z,99.90
2023-04-29T06:35:51.866Z,99.90
2023-04-29T06:38:23.420Z,99.90
2023-04-29T06:40:55.017Z,99.90
2023-04-29T06:43:28.340Z,99.90
2023-04-29T06:45:59.260Z,99.90
2023-04-29T06:48:30.861Z,99.90
2023-04-29T06:51:02.637Z,99.90
2023-04-29T06:53:33.799Z,99.90
2023-04-29T06:56:05.290Z,99.90
2023-04-29T06:58:37.813Z,99.90
2023-04-29T07:01:10.361Z,99.90
2023-04-29T07:03:41.420Z,99.90
2023-04-29T07:06:12.343Z,99.90
2023-04-29T07:08:43.094Z,99.90
2023-04-29T07:11:14.740Z,99.90
2023-04-29T07:13:48.088Z,99.90
2023-04-29T07:16:21.485Z,99.90
2023-04-29T07:18:52.504Z,99.90
2023-04-29T07:21:23.339Z,99.90
2023-04-29T07:23:54.606Z,99.90
2023-04-29T07:26:25.645Z,99.90
2023-04-29T07:28:58.788Z,99.90
2023-04-29T07:31:30.548Z,99.90
2023-04-29T07:34:02.254Z,99.90
2023-04-29T07:36:33.944Z,99.90
2023-04-29T07:39:04.809Z,99.90
2023-04-29T07:41:36.950Z,99.90
2023-04-29T07:44:09.643Z,99.90
2023-04-29T07:46:40.678Z,99.90
2023-04-29T07:49:11.810Z,99.90
2023-04-29T07:51:45.090Z,99.90
2023-04-29T07:54:16.191Z,99.90
2023-04-29T07:56:47.030Z,99.90
2023-04-29T07:59:20.692Z,99.90
2023-04-29T08:01:52.007Z,99.90
2023-04-29T08:04:23.068Z,99.90
2023-04-29T08:06:54.091Z,99.90
2023-04-29T08:09:25.016Z,99.90
2023-04-29T08:11:56.027Z,99.90
2023-04-29T08:14:28.733Z,99.90
2023-04-29T08:16:59.687Z,99.90
2023-04-29T08:19:31.264Z,99.90
2023-04-29T08:22:02.494Z,99.90
2023-04-29T08:24:34.568Z,99.90
2023-04-29T08:27:06.660Z,99.90
2023-04-29T08:29:39.322Z,99.90
2023-04-29T08:32:11.451Z,99.90
2023-04-29T08:34:43.421Z,99.90
2023-04-29T08:37:14.900Z,99.90
2023-04-29T08:39:47.713Z,99.90
2023-04-29T08:42:21.824Z,99.90
2023-04-29T08:44:56.764Z,99.90
2023-04-29T08:47:28.716Z,99.90
2023-04-29T08:49:59.808Z,99.90
2023-04-29T08:52:31.388Z,99.90
2023-04-29T08:55:03.772Z,99.90
2023-04-29T08:57:40.415Z,99.90
2023-04-29T09:00:14.708Z,99.90
2023-04-29T09:02:52.504Z,99.90
2023-04-29T09:05:24.768Z,99.90
2023-04-29T09:07:56.745Z,99.90
2023-04-29T09:10:28.558Z,99.90
2023-04-29T09:13:01.088Z,99.90
2023-04-29T09:15:41.490Z,99.90
2023-04-29T09:18:12.421Z,99.90
2023-04-29T09:20:43.390Z,99.90
2023-04-29T09:23:14.275Z,99.90
2023-04-29T09:25:57.233Z,99.90
2023-04-29T09:28:28.794Z,99.90
2023-04-29T09:31:01.752Z,99.90
2023-04-29T09:33:33.360Z,99.90
2023-04-29T09:36:04.708Z,99.90
2023-04-29T09:38:37.519Z,99.90
2023-04-29T09:41:17.311Z,99.90
2023-04-29T09:43:48.830Z,99.90
2023-04-29T09:46:22.184Z,99.90
2023-04-29T09:48:53.416Z,99.90
2023-04-29T09:51:24.454Z,99.90
2023-04-29T09:53:55.660Z,99.90
2023-04-29T09:56:30.204Z,99.90
2023-04-29T09:59:11.789Z,99.90
2023-04-29T10:01:45.056Z,99.90
2023-04-29T10:04:19.245Z,99.90
2023-04-29T10:06:52.820Z,99.90
2023-04-29T10:09:25.328Z,99.90
2023-04-29T10:11:57.225Z,99.90
2023-04-29T10:14:30.479Z,99.90
2023-04-29T10:17:11.830Z,99.90
2023-04-29T10:19:46.374Z,99.90
2023-04-29T10:22:25.797Z,99.90
2023-04-29T10:24:58.902Z,99.90
2023-04-29T10:27:31.397Z,99.90
2023-04-29T10:30:05.626Z,99.90
2023-04-29T10:32:50.399Z,99.90
2023-04-29T10:35:24.045Z,99.90
2023-04-29T10:37:56.245Z,99.90
2023-04-29T10:40:34.176Z,99.90
2023-04-29T10:43:05.613Z,99.90
2023-04-29T10:45:37.738Z,99.90
2023-04-29T10:48:23.262Z,99.90
2023-04-29T10:51:07.387Z,99.90
2023-04-29T10:53:39.180Z,99.90
2023-04-29T10:56:14.341Z,99.90
2023-04-29T10:58:46.867Z,99.90
2023-04-29T11:01:20.281Z,99.90
2023-04-29T11:03:59.344Z,99.90
2023-04-29T11:06:43.640Z,99.90
2023-04-29T11:09:16.843Z,99.90
2023-04-29T11:11:53.358Z,99.90
2023-04-29T11:14:28.305Z,99.90
2023-04-29T11:17:01.970Z,99.90
2023-04-29T11:19:38.447Z,99.90
2023-04-29T11:22:18.719Z,99.90
2023-04-29T11:24:55.367Z,99.90
2023-04-29T11:27:37.679Z,99.90
2023-04-29T11:30:10.776Z,99.90
2023-04-29T11:32:44.130Z,99.90
2023-04-29T11:35:17.714Z,99.90
2023-04-29T11:37:50.353Z,99.90
2023-04-29T11:40:22.792Z,99.90
2023-04-29T11:42:53.943Z,99.90
2023-04-29T11:45:25.747Z,99.90
2023-04-29T11:47:57.321Z,99.90
2023-04-29T11:50:30.237Z,99.90
2023-04-29T11:53:02.403Z,99.90
2023-04-29T11:55:33.577Z,99.90
2023-04-29T11:58:04.703Z,99.90
2023-04-29T12:00:35.693Z,99.90
2023-04-29T12:03:16.888Z,99.90
2023-04-29T12:05:55.105Z,99.90
2023-04-29T12:08:27.273Z,99.90
2023-04-29T12:10:59.824Z,99.90
2023-04-29T12:13:33.453Z,99.90
2023-04-29T12:16:05.163Z,99.90
2023-04-29T12:18:36.400Z,99.90
2023-04-29T12:21:09.742Z,99.90
2023-04-29T12:23:41.297Z,99.90
2023-04-29T12:26:13.110Z,99.90
2023-04-29T12:28:45.344Z,99.90
2023-04-29T12:31:19.473Z,99.90
2023-04-29T12:33:50.361Z,99.90
2023-04-29T12:36:23.539Z,99.90
2023-04-29T12:38:55.756Z,99.90
2023-04-29T12:41:40.668Z,99.90
2023-04-29T12:44:13.385Z,99.90
2023-04-29T12:46:44.932Z,99.90
2023-04-29T12:49:16.681Z,99.90
2023-04-29T12:51:50.325Z,99.90
2023-04-29T12:54:21.252Z,99.90
2023-04-29T12:56:52.384Z,99.90
2023-04-29T12:59:23.275Z,99.90
2023-04-29T13:01:54.790Z,99.90
2023-04-29T13:04:26.035Z,99.90
2023-04-29T13:07:01.612Z,99.90
2023-04-29T13:09:33.191Z,99.90
2023-04-29T13:12:04.965Z,99.90
2023-04-29T13:14:36.198Z,99.90
2023-04-29T13:17:07.313Z,99.90
2023-04-29T13:19:49.667Z,99.90
2023-04-29T13:22:25.105Z,99.90
2023-04-29T13:24:56.504Z,99.90
2023-04-29T13:27:28.643Z,99.90
2023-04-29T13:29:59.603Z,99.90
2023-04-29T13:32:43.207Z,99.90
2023-04-29T13:35:15.969Z,99.90
2023-04-29T13:37:49.265Z,99.90
2023-04-29T13:40:21.714Z,99.90
2023-04-29T13:43:02.522Z,99.90
2023-04-29T13:45:39.940Z,99.90
2023-04-29T13:48:38.248Z,99.90
2023-04-29T13:51:52.678Z,99.90
2023-04-29T13:54:48.306Z,99.90
2023-04-29T14:04:32.692Z,99.90
2023-04-29T14:07:03.836Z,99.90
2023-04-29T14:09:37.362Z,99.90
2023-04-29T14:12:08.323Z,99.90
2023-04-29T14:14:39.476Z,99.90
2023-04-29T14:17:10.583Z,99.90
2023-04-29T14:19:42.174Z,99.90
2023-04-29T14:22:12.974Z,99.90
2023-04-29T14:24:47.422Z,99.90
2023-04-29T14:27:18.584Z,99.90
2023-04-29T14:29:49.631Z,99.90
2023-04-29T14:32:20.556Z,99.90
2023-04-29T14:34:52.200Z,99.90
2023-04-29T14:37:23.659Z,99.90
2023-04-29T14:39:57.297Z,99.90
2023-04-29T14:42:28.378Z,99.90
2023-04-29T14:44:59.827Z,99.90
2023-04-29T14:47:31.377Z,99.90
2023-04-29T14:50:03.094Z,99.90
2023-04-29T14:52:34.324Z,99.90
2023-04-29T14:55:08.638Z,99.90
2023-04-29T14:57:39.895Z,99.90
2023-04-29T15:00:12.973Z,99.90
2023-04-29T15:02:43.806Z,99.90
2023-04-29T15:05:14.904Z,99.90
2023-04-29T15:07:46.513Z,99.90
2023-04-29T15:10:19.227Z,99.90
2023-04-29T15:12:50.165Z,99.90
2023-04-29T15:15:21.400Z,99.90
2023-04-29T15:17:52.844Z,99.90
2023-04-29T15:20:24.028Z,99.90
2023-04-29T15:22:55.477Z,99.90
2023-04-29T15:25:28.059Z,99.90
2023-04-29T15:28:00.235Z,99.90
2023-04-29T15:30:31.433Z,99.90
2023-04-29T15:33:02.810Z,99.90
2023-04-29T15:35:34.313Z,99.90
2023-04-29T15:38:05.327Z,99.90
2023-04-29T15:40:38.927Z,99.90
2023-04-29T15:43:10.229Z,99.90
2023-04-29T15:45:42.301Z,99.90
2023-04-29T15:48:13.100Z,99.90
2023-04-29T15:50:44.304Z,99.90
2023-04-29T15:53:15.510Z,99.90
2023-04-29T15:55:48.345Z,99.90
2023-04-29T15:58:19.305Z,99.90
2023-04-29T16:00:50.142Z,99.90
2023-04-29T16:03:21.341Z,99.90
2023-04-29T16:05:54.024Z,99.90
2023-04-29T16:08:25.085Z,99.90
2023-04-29T16:10:58.400Z,99.90
2023-04-29T16:13:30.301Z,99.90
2023-04-29T16:16:01.101Z,99.90
2023-04-29T16:18:33.815Z,99.90
2023-04-29T16:21:05.769Z,99.90
2023-04-29T16:23:37.120Z,99.90
2023-04-29T16:26:09.922Z,99.90
2023-04-29T16:28:41.764Z,99.90
2023-04-29T16:31:13.827Z,99.90
2023-04-29T16:33:44.985Z,99.90
2023-04-29T16:36:16.167Z,99.90
2023-04-29T16:38:46.996Z,99.90
2023-04-29T16:41:19.688Z,99.90
2023-04-29T16:43:50.623Z,99.90
2023-04-29T16:46:24.540Z,99.90
2023-04-29T16:48:57.624Z,99.90
2023-04-29T16:51:28.531Z,99.90
2023-04-29T16:53:59.362Z,99.90
2023-04-29T16:56:31.898Z,99.90
2023-04-29T16:59:02.632Z,99.90
2023-04-29T17:01:34.141Z,99.90
2023-04-29T17:04:05.241Z,99.90
2023-04-29T17:06:36.621Z,99.90
2023-04-29T17:09:08.941Z,99.90
2023-04-29T17:11:41.786Z,99.90
2023-04-29T17:14:13.508Z,99.90
2023-04-29T17:16:44.265Z,99.90
2023-04-29T17:19:16.347Z,99.90
2023-04-29T17:21:48.086Z,99.90
2023-04-29T17:24:19.104Z,99.90
2023-04-29T17:26:51.883Z,99.90
2023-04-29T17:29:23.476Z,99.90
2023-04-29T17:32:00.531Z,99.90
2023-04-29T17:34:31.924Z,99.90
2023-04-29T17:37:03.022Z,99.90
2023-04-29T17:39:34.147Z,99.90
2023-04-29T17:42:06.726Z,99.90
2023-04-29T17:44:39.018Z,99.90
2023-04-29T17:47:11.814Z,99.90
2023-04-29T17:49:42.816Z,99.90
2023-04-29T17:52:15.443Z,99.90
2023-04-29T17:54:46.427Z,99.90
2023-04-29T17:57:19.450Z,99.90
2023-04-29T17:59:50.403Z,99.90
2023-04-29T18:02:21.856Z,99.90
2023-04-29T18:04:52.830Z,99.90
2023-04-29T18:07:23.813Z,99.90
2023-04-29T18:09:55.644Z,99.90
2023-04-29T18:12:29.042Z,99.90
2023-04-29T18:15:00.364Z,99.90
2023-04-29T18:17:31.436Z,99.90
2023-04-29T18:20:02.565Z,99.90
2023-04-29T18:22:34.131Z,99.90
2023-04-29T18:25:05.395Z,99.90
2023-04-29T18:27:38.738Z,99.90
2023-04-29T18:30:11.678Z,99.90
2023-04-29T18:32:43.883Z,99.90
2023-04-29T18:35:14.802Z,99.90
2023-04-29T18:37:46.369Z,99.90
2023-04-29T18:40:17.737Z,99.90
2023-04-29T18:42:50.611Z,99.90
2023-04-29T18:45:22.002Z,99.90
2023-04-29T18:47:52.966Z,99.90
2023-04-29T18:50:24.325Z,99.90
2023-04-29T18:52:56.109Z,99.90
2023-04-29T18:55:27.064Z,99.90
2023-04-29T18:58:00.412Z,99.90
2023-04-29T19:00:31.501Z,99.90
2023-04-29T19:03:02.469Z,99.90
2023-04-29T19:05:33.388Z,99.90
2023-04-29T19:08:04.355Z,99.90
2023-04-29T19:10:35.226Z,99.90
2023-04-29T19:13:07.743Z,99.90
2023-04-29T19:15:38.953Z,99.90
2023-04-29T19:18:10.295Z,99.90
2023-04-29T19:20:41.573Z,99.90
2023-04-29T19:23:13.007Z,99.90
2023-04-29T19:25:43.816Z,99.90
2023-04-29T19:28:16.581Z,99.90
2023-04-29T19:30:47.648Z,99.90
2023-04-29T19:33:18.902Z,99.90
2023-04-29T19:35:50.441Z,99.90
2023-04-29T19:38:21.278Z,99.90
2023-04-29T19:40:52.658Z,99.90
2023-04-29T19:43:25.560Z,99.90
2023-04-29T19:45:56.638Z,99.90
2023-04-29T19:48:27.457Z,99.90
2023-04-29T19:51:00.351Z,99.90
2023-04-29T19:53:31.287Z,99.90
2023-04-29T19:56:02.669Z,99.90
2023-04-29T19:58:35.542Z,99.90
2023-04-29T20:01:07.009Z,99.90
2023-04-29T20:03:40.040Z,99.90
2023-04-29T20:06:11.688Z,99.90
2023-04-29T20:08:42.964Z,99.90
2023-04-29T20:11:14.247Z,99.90
2023-04-29T20:13:47.164Z,99.90
2023-04-29T20:16:18.080Z,99.90
2023-04-29T20:18:49.606Z,99.90
2023-04-29T20:21:20.670Z,99.90
2023-04-29T20:23:51.980Z,99.90
2023-04-29T20:26:23.517Z,99.90
2023-04-29T20:28:56.606Z,99.90
2023-04-29T20:31:27.403Z,99.90
2023-04-29T20:33:59.208Z,99.90
2023-04-29T20:36:31.380Z,99.90
2023-04-29T20:39:02.858Z,99.90
2023-04-29T20:41:34.607Z,99.90
2023-04-29T20:44:07.351Z,99.90
2023-04-29T20:46:39.039Z,99.90
2023-04-29T20:49:09.969Z,99.90
2023-04-29T20:51:41.546Z,99.90
2023-04-29T20:54:12.836Z,99.90
2023-04-29T20:56:43.949Z,99.90
2023-04-29T20:59:16.948Z,99.90
2023-04-29T21:01:47.919Z,99.90
2023-04-29T21:04:19.714Z,99.90
2023-04-29T21:06:52.080Z,99.90
2023-04-29T21:09:23.748Z,99.90
2023-04-29T21:11:54.644Z,99.90
2023-04-29T21:14:27.979Z,99.90
2023-04-29T21:16:59.525Z,99.90
2023-04-29T21:19:31.007Z,99.90
2023-04-29T21:22:02.251Z,99.90
2023-04-29T21:24:34.154Z,99.90
2023-04-29T21:27:05.322Z,99.90
2023-04-29T21:29:41.403Z,99.90
2023-04-29T21:32:12.933Z,99.90
2023-04-29T21:34:44.044Z,99.90
2023-04-29T21:37:15.384Z,99.90
2023-04-29T21:39:46.688Z,99.90
2023-04-29T21:42:22.251Z,99.90
2023-04-29T21:44:55.348Z,99.90
2023-04-29T21:47:26.878Z,99.90
2023-04-29T21:49:58.275Z,99.90
2023-04-29T21:52:29.254Z,99.90
2023-04-29T21:55:00.165Z,99.90
2023-04-29T21:57:42.897Z,99.90
2023-04-29T22:00:29.527Z,99.90
2023-04-29T22:03:00.908Z,99.90
2023-04-29T22:05:32.920Z,99.90
2023-04-29T22:08:04.104Z,99.90
2023-04-29T22:10:35.203Z,99.90
2023-04-29T22:13:06.584Z,99.90
2023-04-29T22:15:39.847Z,99.90
2023-04-29T22:18:11.406Z,99.90
2023-04-29T22:20:43.756Z,99.90
2023-04-29T22:23:14.607Z,99.90
2023-04-29T22:25:46.101Z,99.90
2023-04-29T22:28:17.915Z,99.90
2023-04-29T22:30:51.297Z,99.90
2023-04-29T22:33:22.168Z,99.90
2023-04-29T22:35:53.062Z,99.90
2023-04-29T22:38:24.021Z,99.90
2023-04-29T22:40:54.910Z,99.90
2023-04-29T22:43:25.850Z,99.90
2023-04-29T22:45:59.007Z,99.90
2023-04-29T22:48:29.772Z,99.90
2023-04-29T22:51:03.772Z,98.90
2023-04-29T22:53:34.551Z,98.90
2023-04-29T22:56:05.405Z,98.50
2023-04-29T22:58:36.786Z,96.70
2023-04-29T23:01:11.347Z,98.40
2023-04-29T23:03:42.881Z,97.40
2023-04-29T23:06:14.043Z,96.10
2023-04-29T23:08:45.574Z,95.50
2023-04-29T23:11:16.799Z,95.10
2023-04-29T23:13:47.722Z,92.80
2023-04-29T23:16:20.460Z,91.60
2023-04-29T23:18:51.411Z,93.40
2023-04-29T23:21:22.188Z,93.30
2023-04-29T23:23:53.621Z,93.40
2023-04-29T23:26:25.585Z,93.30
2023-04-29T23:28:56.550Z,91.70
2023-04-29T23:31:28.976Z,92.00
2023-04-29T23:34:00.600Z,90.70
2023-04-29T23:36:33.042Z,92.70
2023-04-29T23:39:03.910Z,92.50
2023-04-29T23:41:34.665Z,92.30
2023-04-29T23:44:05.549Z,90.90
2023-04-29T23:46:38.298Z,90.40
2023-04-29T23:49:11.242Z,90.90
2023-04-29T23:51:42.056Z,89.50
2023-04-29T23:54:12.870Z,90.00
2023-04-29T23:56:43.746Z,90.60
2023-04-29T23:59:14.522Z,89.50
